sensor_id;sensor_type;location;lat;lon;timestamp;P1;durP1;ratioP1;P2;durP2;ratioP2
56999;SDS011;42891;50.006;21.964;2022-11-15T00:03:30;25.83;;;12.13;;
56999;SDS011;42891;50.006;21.964;2022-11-15T00:07:31;18.63;;;10.87;;
56999;SDS011;42891;50.006;21.964;2022-11-15T00:11:31;29.20;;;10.13;;
56999;SDS011;42891;50.006;21.964;2022-11-15T00:15:31;19.05;;;9.27;;
56999;SDS011;42891;50.006;21.964;2022-11-15T00:19:34;30.55;;;10.48;;
56999;SDS011;42891;50.006;21.964;2022-11-15T00:23:35;17.93;;;10.37;;
56999;SDS011;42891;50.006;21.964;2022-11-15T00:27:35;13.98;;;8.85;;
56999;SDS011;42891;50.006;21.964;2022-11-15T00:31:35;18.23;;;9.80;;
56999;SDS011;42891;50.006;21.964;2022-11-15T00:35:36;17.08;;;10.10;;
56999;SDS011;42891;50.006;21.964;2022-11-15T00:39:36;25.83;;;10.15;;
56999;SDS011;42891;50.006;21.964;2022-11-15T00:43:36;16.33;;;9.83;;
56999;SDS011;42891;50.006;21.964;2022-11-15T00:47:39;16.08;;;10.60;;
56999;SDS011;42891;50.006;21.964;2022-11-15T00:51:39;25.40;;;10.27;;
56999;SDS011;42891;50.006;21.964;2022-11-15T00:55:40;14.97;;;9.37;;
56999;SDS011;42891;50.006;21.964;2022-11-15T00:59:40;12.80;;;8.82;;
56999;SDS011;42891;50.006;21.964;2022-11-15T01:03:41;14.40;;;8.90;;
56999;SDS011;42891;50.006;21.964;2022-11-15T01:07:41;96.88;;;12.90;;
56999;SDS011;42891;50.006;21.964;2022-11-15T01:11:42;11.95;;;8.50;;
56999;SDS011;42891;50.006;21.964;2022-11-15T01:15:42;11.07;;;8.50;;
56999;SDS011;42891;50.006;21.964;2022-11-15T01:19:43;20.10;;;9.40;;
56999;SDS011;42891;50.006;21.964;2022-11-15T01:23:43;19.45;;;9.88;;
56999;SDS011;42891;50.006;21.964;2022-11-15T01:27:44;14.55;;;8.65;;
56999;SDS011;42891;50.006;21.964;2022-11-15T01:31:45;12.52;;;8.10;;
56999;SDS011;42891;50.006;21.964;2022-11-15T01:35:45;26.55;;;9.00;;
56999;SDS011;42891;50.006;21.964;2022-11-15T01:39:45;15.73;;;8.70;;
56999;SDS011;42891;50.006;21.964;2022-11-15T01:43:51;22.80;;;9.48;;
56999;SDS011;42891;50.006;21.964;2022-11-15T01:47:53;30.58;;;9.63;;
56999;SDS011;42891;50.006;21.964;2022-11-15T01:51:55;17.42;;;8.73;;
56999;SDS011;42891;50.006;21.964;2022-11-15T01:55:57;23.00;;;9.18;;
56999;SDS011;42891;50.006;21.964;2022-11-15T01:59:58;14.15;;;8.35;;
56999;SDS011;42891;50.006;21.964;2022-11-15T02:04:22;13.75;;;8.80;;
56999;SDS011;42891;50.006;21.964;2022-11-15T02:08:26;26.27;;;9.15;;
56999;SDS011;42891;50.006;21.964;2022-11-15T02:12:27;12.57;;;8.38;;
56999;SDS011;42891;50.006;21.964;2022-11-15T02:29:27;12.52;;;7.55;;
56999;SDS011;42891;50.006;21.964;2022-11-15T02:33:42;11.05;;;7.07;;
56999;SDS011;42891;50.006;21.964;2022-11-15T02:41:54;8.10;;;6.68;;
56999;SDS011;42891;50.006;21.964;2022-11-15T02:46:13;16.58;;;7.50;;
56999;SDS011;42891;50.006;21.964;2022-11-15T02:50:47;15.32;;;8.30;;
56999;SDS011;42891;50.006;21.964;2022-11-15T02:54:52;25.90;;;8.18;;
56999;SDS011;42891;50.006;21.964;2022-11-15T03:07:13;26.17;;;8.07;;
56999;SDS011;42891;50.006;21.964;2022-11-15T03:11:19;35.10;;;7.88;;
56999;SDS011;42891;50.006;21.964;2022-11-15T03:15:23;27.67;;;7.22;;
56999;SDS011;42891;50.006;21.964;2022-11-15T03:20:03;56.85;;;8.75;;
56999;SDS011;42891;50.006;21.964;2022-11-15T03:24:06;56.90;;;7.70;;
56999;SDS011;42891;50.006;21.964;2022-11-15T03:28:08;51.78;;;8.95;;
56999;SDS011;42891;50.006;21.964;2022-11-15T03:32:13;147.60;;;11.18;;
56999;SDS011;42891;50.006;21.964;2022-11-15T03:36:19;86.43;;;8.32;;
56999;SDS011;42891;50.006;21.964;2022-11-15T03:40:23;19.25;;;6.70;;
56999;SDS011;42891;50.006;21.964;2022-11-15T03:49:40;63.85;;;7.82;;
56999;SDS011;42891;50.006;21.964;2022-11-15T03:53:34;11.23;;;5.57;;
56999;SDS011;42891;50.006;21.964;2022-11-15T03:57:35;15.23;;;5.30;;
56999;SDS011;42891;50.006;21.964;2022-11-15T04:01:35;22.02;;;5.38;;
56999;SDS011;42891;50.006;21.964;2022-11-15T04:05:35;15.98;;;5.13;;
56999;SDS011;42891;50.006;21.964;2022-11-15T04:09:36;23.45;;;6.03;;
56999;SDS011;42891;50.006;21.964;2022-11-15T04:13:59;17.23;;;5.40;;
56999;SDS011;42891;50.006;21.964;2022-11-15T04:17:59;29.60;;;5.68;;
56999;SDS011;42891;50.006;21.964;2022-11-15T04:22:00;6.68;;;4.45;;
56999;SDS011;42891;50.006;21.964;2022-11-15T04:26:19;10.73;;;4.72;;
56999;SDS011;42891;50.006;21.964;2022-11-15T04:30:21;19.88;;;5.18;;
56999;SDS011;42891;50.006;21.964;2022-11-15T04:34:22;30.00;;;5.72;;
56999;SDS011;42891;50.006;21.964;2022-11-15T04:38:22;23.42;;;5.82;;
56999;SDS011;42891;50.006;21.964;2022-11-15T04:42:22;93.43;;;7.40;;
56999;SDS011;42891;50.006;21.964;2022-11-15T04:46:23;9.57;;;4.80;;
56999;SDS011;42891;50.006;21.964;2022-11-15T04:50:24;37.13;;;5.20;;
56999;SDS011;42891;50.006;21.964;2022-11-15T04:54:24;20.70;;;6.28;;
56999;SDS011;42891;50.006;21.964;2022-11-15T04:58:24;34.50;;;5.97;;
56999;SDS011;42891;50.006;21.964;2022-11-15T05:02:25;32.63;;;5.97;;
56999;SDS011;42891;50.006;21.964;2022-11-15T05:06:48;36.05;;;7.07;;
56999;SDS011;42891;50.006;21.964;2022-11-15T05:10:49;30.83;;;7.38;;
56999;SDS011;42891;50.006;21.964;2022-11-15T05:14:50;39.25;;;8.10;;
56999;SDS011;42891;50.006;21.964;2022-11-15T05:18:51;20.17;;;5.53;;
56999;SDS011;42891;50.006;21.964;2022-11-15T05:22:52;37.13;;;5.88;;
56999;SDS011;42891;50.006;21.964;2022-11-15T05:26:53;26.70;;;4.13;;
56999;SDS011;42891;50.006;21.964;2022-11-15T05:30:59;51.73;;;5.70;;
56999;SDS011;42891;50.006;21.964;2022-11-15T05:35:03;22.88;;;4.90;;
56999;SDS011;42891;50.006;21.964;2022-11-15T05:39:08;27.20;;;4.47;;
56999;SDS011;42891;50.006;21.964;2022-11-15T05:43:09;8.10;;;4.22;;
56999;SDS011;42891;50.006;21.964;2022-11-15T05:47:11;34.15;;;5.32;;
56999;SDS011;42891;50.006;21.964;2022-11-15T05:51:16;32.22;;;5.68;;
56999;SDS011;42891;50.006;21.964;2022-11-15T05:55:19;24.95;;;5.22;;
56999;SDS011;42891;50.006;21.964;2022-11-15T05:59:19;17.17;;;6.03;;
56999;SDS011;42891;50.006;21.964;2022-11-15T06:03:20;22.90;;;6.25;;
56999;SDS011;42891;50.006;21.964;2022-11-15T06:07:20;32.07;;;6.57;;
56999;SDS011;42891;50.006;21.964;2022-11-15T06:11:20;32.80;;;7.30;;
56999;SDS011;42891;50.006;21.964;2022-11-15T06:15:21;12.00;;;7.20;;
56999;SDS011;42891;50.006;21.964;2022-11-15T06:19:21;32.27;;;7.43;;
56999;SDS011;42891;50.006;21.964;2022-11-15T06:23:21;32.28;;;8.13;;
56999;SDS011;42891;50.006;21.964;2022-11-15T06:27:21;51.73;;;8.37;;
56999;SDS011;42891;50.006;21.964;2022-11-15T06:31:22;27.98;;;7.00;;
56999;SDS011;42891;50.006;21.964;2022-11-15T06:35:22;20.03;;;7.33;;
56999;SDS011;42891;50.006;21.964;2022-11-15T06:39:22;10.67;;;6.93;;
56999;SDS011;42891;50.006;21.964;2022-11-15T06:43:23;19.83;;;12.60;;
56999;SDS011;42891;50.006;21.964;2022-11-15T06:47:23;9.53;;;7.30;;
56999;SDS011;42891;50.006;21.964;2022-11-15T06:51:23;10.57;;;7.53;;
56999;SDS011;42891;50.006;21.964;2022-11-15T06:55:23;7.73;;;6.00;;
56999;SDS011;42891;50.006;21.964;2022-11-15T06:59:24;11.10;;;8.73;;
56999;SDS011;42891;50.006;21.964;2022-11-15T07:03:24;11.73;;;7.20;;
56999;SDS011;42891;50.006;21.964;2022-11-15T07:07:24;9.73;;;7.22;;
56999;SDS011;42891;50.006;21.964;2022-11-15T07:11:25;10.85;;;6.45;;
56999;SDS011;42891;50.006;21.964;2022-11-15T07:15:25;11.45;;;7.90;;
56999;SDS011;42891;50.006;21.964;2022-11-15T07:19:26;10.15;;;8.00;;
56999;SDS011;42891;50.006;21.964;2022-11-15T07:23:26;10.52;;;7.75;;
56999;SDS011;42891;50.006;21.964;2022-11-15T07:27:26;9.20;;;7.23;;
56999;SDS011;42891;50.006;21.964;2022-11-15T07:31:27;13.07;;;8.32;;
56999;SDS011;42891;50.006;21.964;2022-11-15T07:35:28;11.40;;;7.65;;
56999;SDS011;42891;50.006;21.964;2022-11-15T07:39:29;11.32;;;7.55;;
56999;SDS011;42891;50.006;21.964;2022-11-15T07:43:30;11.63;;;7.72;;
56999;SDS011;42891;50.006;21.964;2022-11-15T07:47:32;14.90;;;9.75;;
56999;SDS011;42891;50.006;21.964;2022-11-15T07:51:33;11.35;;;8.30;;
56999;SDS011;42891;50.006;21.964;2022-11-15T07:55:33;13.00;;;9.30;;
56999;SDS011;42891;50.006;21.964;2022-11-15T07:59:33;11.90;;;8.80;;
56999;SDS011;42891;50.006;21.964;2022-11-15T08:03:34;11.35;;;8.57;;
56999;SDS011;42891;50.006;21.964;2022-11-15T08:07:35;16.05;;;9.00;;
56999;SDS011;42891;50.006;21.964;2022-11-15T08:11:35;13.53;;;9.87;;
56999;SDS011;42891;50.006;21.964;2022-11-15T08:15:36;13.43;;;8.90;;
56999;SDS011;42891;50.006;21.964;2022-11-15T08:19:37;12.35;;;9.35;;
56999;SDS011;42891;50.006;21.964;2022-11-15T08:23:37;14.07;;;10.13;;
56999;SDS011;42891;50.006;21.964;2022-11-15T08:27:37;13.02;;;9.35;;
56999;SDS011;42891;50.006;21.964;2022-11-15T08:31:40;12.43;;;9.53;;
56999;SDS011;42891;50.006;21.964;2022-11-15T08:35:41;13.63;;;9.50;;
56999;SDS011;42891;50.006;21.964;2022-11-15T08:39:42;15.43;;;9.85;;
56999;SDS011;42891;50.006;21.964;2022-11-15T08:43:42;14.37;;;10.20;;
56999;SDS011;42891;50.006;21.964;2022-11-15T08:47:43;15.23;;;10.47;;
56999;SDS011;42891;50.006;21.964;2022-11-15T08:51:44;15.00;;;10.60;;
56999;SDS011;42891;50.006;21.964;2022-11-15T08:55:45;15.98;;;10.82;;
56999;SDS011;42891;50.006;21.964;2022-11-15T08:59:45;16.03;;;10.87;;
56999;SDS011;42891;50.006;21.964;2022-11-15T09:03:45;13.75;;;10.23;;
56999;SDS011;42891;50.006;21.964;2022-11-15T09:07:45;11.82;;;9.32;;
56999;SDS011;42891;50.006;21.964;2022-11-15T09:11:46;15.82;;;9.95;;
56999;SDS011;42891;50.006;21.964;2022-11-15T09:15:46;14.43;;;10.60;;
56999;SDS011;42891;50.006;21.964;2022-11-15T09:19:47;15.20;;;10.02;;
56999;SDS011;42891;50.006;21.964;2022-11-15T09:23:49;17.77;;;10.73;;
56999;SDS011;42891;50.006;21.964;2022-11-15T09:27:51;13.23;;;9.07;;
56999;SDS011;42891;50.006;21.964;2022-11-15T09:31:51;17.60;;;11.03;;
56999;SDS011;42891;50.006;21.964;2022-11-15T09:35:52;15.35;;;9.88;;
56999;SDS011;42891;50.006;21.964;2022-11-15T09:39:53;15.50;;;9.63;;
56999;SDS011;42891;50.006;21.964;2022-11-15T09:52:14;13.95;;;9.88;;
56999;SDS011;42891;50.006;21.964;2022-11-15T09:56:22;16.92;;;9.98;;
56999;SDS011;42891;50.006;21.964;2022-11-15T10:04:35;12.25;;;8.73;;
56999;SDS011;42891;50.006;21.964;2022-11-15T10:08:44;13.38;;;9.20;;
56999;SDS011;42891;50.006;21.964;2022-11-15T10:12:51;13.75;;;9.45;;
56999;SDS011;42891;50.006;21.964;2022-11-15T10:20:58;14.43;;;11.02;;
56999;SDS011;42891;50.006;21.964;2022-11-15T10:29:03;14.95;;;10.48;;
56999;SDS011;42891;50.006;21.964;2022-11-15T10:37:29;15.00;;;10.07;;
56999;SDS011;42891;50.006;21.964;2022-11-15T10:41:32;17.88;;;10.57;;
56999;SDS011;42891;50.006;21.964;2022-11-15T10:45:37;15.15;;;10.20;;
56999;SDS011;42891;50.006;21.964;2022-11-15T10:49:38;14.82;;;9.60;;
56999;SDS011;42891;50.006;21.964;2022-11-15T10:53:57;13.20;;;9.60;;
56999;SDS011;42891;50.006;21.964;2022-11-15T10:58:19;14.27;;;9.80;;
56999;SDS011;42891;50.006;21.964;2022-11-15T11:02:30;13.77;;;9.77;;
56999;SDS011;42891;50.006;21.964;2022-11-15T11:06:49;17.35;;;10.70;;
56999;SDS011;42891;50.006;21.964;2022-11-15T11:10:54;16.48;;;10.75;;
56999;SDS011;42891;50.006;21.964;2022-11-15T11:19:08;15.88;;;10.40;;
56999;SDS011;42891;50.006;21.964;2022-11-15T11:27:47;13.20;;;9.10;;
56999;SDS011;42891;50.006;21.964;2022-11-15T11:31:58;11.48;;;8.55;;
56999;SDS011;42891;50.006;21.964;2022-11-15T11:40:30;17.70;;;9.02;;
56999;SDS011;42891;50.006;21.964;2022-11-15T11:49:39;13.25;;;8.60;;
56999;SDS011;42891;50.006;21.964;2022-11-15T11:53:44;17.85;;;11.23;;
56999;SDS011;42891;50.006;21.964;2022-11-15T12:02:31;16.02;;;8.65;;
56999;SDS011;42891;50.006;21.964;2022-11-15T12:06:41;18.75;;;11.40;;
56999;SDS011;42891;50.006;21.964;2022-11-15T12:10:58;34.33;;;15.70;;
56999;SDS011;42891;50.006;21.964;2022-11-15T12:15:18;10.13;;;7.80;;
56999;SDS011;42891;50.006;21.964;2022-11-15T12:19:23;10.77;;;7.43;;
56999;SDS011;42891;50.006;21.964;2022-11-15T12:23:25;10.57;;;7.50;;
56999;SDS011;42891;50.006;21.964;2022-11-15T12:27:39;13.02;;;7.57;;
56999;SDS011;42891;50.006;21.964;2022-11-15T12:31:44;10.25;;;7.38;;
56999;SDS011;42891;50.006;21.964;2022-11-15T12:35:57;10.88;;;7.65;;
56999;SDS011;42891;50.006;21.964;2022-11-15T12:52:36;11.45;;;7.80;;
56999;SDS011;42891;50.006;21.964;2022-11-15T13:01:03;10.88;;;8.10;;
56999;SDS011;42891;50.006;21.964;2022-11-15T13:13:42;13.20;;;7.40;;
56999;SDS011;42891;50.006;21.964;2022-11-15T13:17:50;15.48;;;7.82;;
56999;SDS011;42891;50.006;21.964;2022-11-15T13:21:52;13.80;;;8.95;;
56999;SDS011;42891;50.006;21.964;2022-11-15T13:26:12;11.27;;;8.70;;
56999;SDS011;42891;50.006;21.964;2022-11-15T13:30:26;14.88;;;9.30;;
56999;SDS011;42891;50.006;21.964;2022-11-15T13:34:30;12.35;;;8.27;;
56999;SDS011;42891;50.006;21.964;2022-11-15T13:38:34;13.68;;;8.52;;
56999;SDS011;42891;50.006;21.964;2022-11-15T13:42:35;11.80;;;8.13;;
56999;SDS011;42891;50.006;21.964;2022-11-15T13:46:36;12.47;;;8.07;;
56999;SDS011;42891;50.006;21.964;2022-11-15T13:50:36;12.53;;;8.13;;
56999;SDS011;42891;50.006;21.964;2022-11-15T13:58:47;10.52;;;6.50;;
56999;SDS011;42891;50.006;21.964;2022-11-15T14:02:48;10.07;;;7.07;;
56999;SDS011;42891;50.006;21.964;2022-11-15T14:06:49;9.27;;;6.83;;
56999;SDS011;42891;50.006;21.964;2022-11-15T14:11:06;10.65;;;7.10;;
56999;SDS011;42891;50.006;21.964;2022-11-15T14:19:39;12.27;;;7.43;;
56999;SDS011;42891;50.006;21.964;2022-11-15T14:23:39;13.73;;;8.05;;
56999;SDS011;42891;50.006;21.964;2022-11-15T14:27:41;11.93;;;8.50;;
56999;SDS011;42891;50.006;21.964;2022-11-15T14:31:43;11.00;;;7.75;;
56999;SDS011;42891;50.006;21.964;2022-11-15T14:35:46;12.07;;;8.40;;
56999;SDS011;42891;50.006;21.964;2022-11-15T14:39:47;17.98;;;11.00;;
56999;SDS011;42891;50.006;21.964;2022-11-15T14:43:47;18.60;;;10.75;;
56999;SDS011;42891;50.006;21.964;2022-11-15T14:47:49;19.52;;;12.57;;
56999;SDS011;42891;50.006;21.964;2022-11-15T14:51:49;30.20;;;17.83;;
56999;SDS011;42891;50.006;21.964;2022-11-15T14:55:49;45.90;;;25.87;;
56999;SDS011;42891;50.006;21.964;2022-11-15T14:59:50;40.13;;;25.88;;
56999;SDS011;42891;50.006;21.964;2022-11-15T15:03:50;42.03;;;25.38;;
56999;SDS011;42891;50.006;21.964;2022-11-15T15:07:52;40.22;;;23.02;;
56999;SDS011;42891;50.006;21.964;2022-11-15T15:11:55;46.35;;;25.88;;
56999;SDS011;42891;50.006;21.964;2022-11-15T15:15:55;46.20;;;26.67;;
56999;SDS011;42891;50.006;21.964;2022-11-15T15:19:55;44.33;;;25.07;;
56999;SDS011;42891;50.006;21.964;2022-11-15T15:23:56;49.57;;;29.87;;
56999;SDS011;42891;50.006;21.964;2022-11-15T15:27:56;41.25;;;25.77;;
56999;SDS011;42891;50.006;21.964;2022-11-15T15:31:56;38.67;;;23.40;;
56999;SDS011;42891;50.006;21.964;2022-11-15T15:35:57;45.53;;;26.17;;
56999;SDS011;42891;50.006;21.964;2022-11-15T15:39:57;46.72;;;27.42;;
56999;SDS011;42891;50.006;21.964;2022-11-15T15:43:57;54.70;;;29.77;;
56999;SDS011;42891;50.006;21.964;2022-11-15T15:47:58;63.80;;;34.80;;
56999;SDS011;42891;50.006;21.964;2022-11-15T15:51:58;73.60;;;42.03;;
56999;SDS011;42891;50.006;21.964;2022-11-15T15:55:58;67.63;;;37.77;;
56999;SDS011;42891;50.006;21.964;2022-11-15T15:59:59;69.80;;;40.60;;
56999;SDS011;42891;50.006;21.964;2022-11-15T16:03:59;61.13;;;33.53;;
56999;SDS011;42891;50.006;21.964;2022-11-15T16:07:59;279.00;;;116.43;;
56999;SDS011;42891;50.006;21.964;2022-11-15T16:11:59;277.33;;;121.97;;
56999;SDS011;42891;50.006;21.964;2022-11-15T16:16:00;161.00;;;68.63;;
56999;SDS011;42891;50.006;21.964;2022-11-15T16:20:00;172.43;;;77.33;;
56999;SDS011;42891;50.006;21.964;2022-11-15T16:24:01;95.18;;;48.33;;
56999;SDS011;42891;50.006;21.964;2022-11-15T16:28:01;144.00;;;67.20;;
56999;SDS011;42891;50.006;21.964;2022-11-15T16:32:01;97.63;;;45.63;;
56999;SDS011;42891;50.006;21.964;2022-11-15T16:36:02;108.70;;;49.77;;
56999;SDS011;42891;50.006;21.964;2022-11-15T16:40:04;64.57;;;34.33;;
56999;SDS011;42891;50.006;21.964;2022-11-15T16:44:04;52.58;;;28.35;;
56999;SDS011;42891;50.006;21.964;2022-11-15T16:48:05;52.35;;;30.55;;
56999;SDS011;42891;50.006;21.964;2022-11-15T16:52:05;54.72;;;32.00;;
56999;SDS011;42891;50.006;21.964;2022-11-15T16:56:48;54.50;;;32.63;;
56999;SDS011;42891;50.006;21.964;2022-11-15T17:00:29;57.50;;;34.20;;
56999;SDS011;42891;50.006;21.964;2022-11-15T17:04:30;62.58;;;35.55;;
56999;SDS011;42891;50.006;21.964;2022-11-15T17:08:32;66.38;;;36.67;;
56999;SDS011;42891;50.006;21.964;2022-11-15T17:12:33;67.83;;;37.47;;
56999;SDS011;42891;50.006;21.964;2022-11-15T17:16:35;65.78;;;37.72;;
56999;SDS011;42891;50.006;21.964;2022-11-15T17:20:37;76.82;;;43.75;;
56999;SDS011;42891;50.006;21.964;2022-11-15T17:24:37;115.97;;;65.60;;
56999;SDS011;42891;50.006;21.964;2022-11-15T17:28:37;105.87;;;58.43;;
56999;SDS011;42891;50.006;21.964;2022-11-15T17:32:38;101.00;;;54.75;;
56999;SDS011;42891;50.006;21.964;2022-11-15T17:36:39;80.87;;;48.87;;
56999;SDS011;42891;50.006;21.964;2022-11-15T17:40:39;84.75;;;48.88;;
56999;SDS011;42891;50.006;21.964;2022-11-15T17:44:39;86.60;;;49.80;;
56999;SDS011;42891;50.006;21.964;2022-11-15T17:48:40;84.97;;;49.08;;
56999;SDS011;42891;50.006;21.964;2022-11-15T17:52:40;93.10;;;51.92;;
56999;SDS011;42891;50.006;21.964;2022-11-15T17:56:41;90.93;;;49.97;;
56999;SDS011;42891;50.006;21.964;2022-11-15T18:00:41;87.85;;;48.65;;
56999;SDS011;42891;50.006;21.964;2022-11-15T18:04:41;82.37;;;44.90;;
56999;SDS011;42891;50.006;21.964;2022-11-15T18:08:42;59.88;;;34.33;;
56999;SDS011;42891;50.006;21.964;2022-11-15T18:12:43;61.80;;;33.72;;
56999;SDS011;42891;50.006;21.964;2022-11-15T18:16:43;57.20;;;32.05;;
56999;SDS011;42891;50.006;21.964;2022-11-15T18:20:44;61.25;;;33.63;;
56999;SDS011;42891;50.006;21.964;2022-11-15T18:24:44;55.33;;;32.37;;
56999;SDS011;42891;50.006;21.964;2022-11-15T18:28:46;48.20;;;27.95;;
56999;SDS011;42891;50.006;21.964;2022-11-15T18:32:47;231.82;;;136.10;;
56999;SDS011;42891;50.006;21.964;2022-11-15T18:36:48;127.47;;;78.60;;
56999;SDS011;42891;50.006;21.964;2022-11-15T18:40:51;130.77;;;79.70;;
56999;SDS011;42891;50.006;21.964;2022-11-15T18:44:51;92.57;;;53.73;;
56999;SDS011;42891;50.006;21.964;2022-11-15T18:48:52;126.97;;;80.38;;
56999;SDS011;42891;50.006;21.964;2022-11-15T18:52:53;95.70;;;57.38;;
56999;SDS011;42891;50.006;21.964;2022-11-15T18:56:53;145.50;;;84.87;;
56999;SDS011;42891;50.006;21.964;2022-11-15T19:00:58;113.27;;;64.97;;
56999;SDS011;42891;50.006;21.964;2022-11-15T19:05:19;99.35;;;57.33;;
56999;SDS011;42891;50.006;21.964;2022-11-15T19:09:20;89.53;;;49.55;;
56999;SDS011;42891;50.006;21.964;2022-11-15T19:13:20;78.65;;;44.33;;
56999;SDS011;42891;50.006;21.964;2022-11-15T19:17:20;62.13;;;35.93;;
56999;SDS011;42891;50.006;21.964;2022-11-15T19:21:21;63.23;;;37.50;;
56999;SDS011;42891;50.006;21.964;2022-11-15T19:25:22;65.32;;;36.75;;
56999;SDS011;42891;50.006;21.964;2022-11-15T19:29:29;90.75;;;47.17;;
56999;SDS011;42891;50.006;21.964;2022-11-15T19:33:30;57.47;;;34.78;;
56999;SDS011;42891;50.006;21.964;2022-11-15T19:37:33;576.92;;;314.10;;
56999;SDS011;42891;50.006;21.964;2022-11-15T19:41:34;355.80;;;158.43;;
56999;SDS011;42891;50.006;21.964;2022-11-15T19:45:37;274.77;;;117.03;;
56999;SDS011;42891;50.006;21.964;2022-11-15T19:49:37;64.30;;;31.83;;
56999;SDS011;42891;50.006;21.964;2022-11-15T19:53:37;45.42;;;23.58;;
56999;SDS011;42891;50.006;21.964;2022-11-15T19:57:38;37.42;;;21.38;;
56999;SDS011;42891;50.006;21.964;2022-11-15T20:01:38;27.07;;;16.50;;
56999;SDS011;42891;50.006;21.964;2022-11-15T20:05:38;34.97;;;19.23;;
56999;SDS011;42891;50.006;21.964;2022-11-15T20:09:38;40.30;;;21.87;;
56999;SDS011;42891;50.006;21.964;2022-11-15T20:13:39;38.35;;;21.70;;
56999;SDS011;42891;50.006;21.964;2022-11-15T20:17:40;33.60;;;20.00;;
56999;SDS011;42891;50.006;21.964;2022-11-15T20:21:41;31.00;;;20.13;;
56999;SDS011;42891;50.006;21.964;2022-11-15T20:25:43;30.33;;;18.23;;
56999;SDS011;42891;50.006;21.964;2022-11-15T20:29:45;28.77;;;18.25;;
56999;SDS011;42891;50.006;21.964;2022-11-15T20:33:47;33.28;;;21.10;;
56999;SDS011;42891;50.006;21.964;2022-11-15T20:37:47;46.80;;;28.83;;
56999;SDS011;42891;50.006;21.964;2022-11-15T20:41:48;65.15;;;42.05;;
56999;SDS011;42891;50.006;21.964;2022-11-15T20:45:48;62.23;;;32.60;;
56999;SDS011;42891;50.006;21.964;2022-11-15T20:49:49;63.13;;;35.35;;
56999;SDS011;42891;50.006;21.964;2022-11-15T20:53:49;57.70;;;35.03;;
56999;SDS011;42891;50.006;21.964;2022-11-15T20:57:50;69.90;;;40.05;;
56999;SDS011;42891;50.006;21.964;2022-11-15T21:01:51;53.20;;;32.30;;
56999;SDS011;42891;50.006;21.964;2022-11-15T21:05:51;39.50;;;22.73;;
56999;SDS011;42891;50.006;21.964;2022-11-15T21:09:52;38.25;;;20.60;;
56999;SDS011;42891;50.006;21.964;2022-11-15T21:14:11;33.38;;;18.58;;
56999;SDS011;42891;50.006;21.964;2022-11-15T21:18:11;34.87;;;21.70;;
56999;SDS011;42891;50.006;21.964;2022-11-15T21:22:12;34.38;;;20.38;;
56999;SDS011;42891;50.006;21.964;2022-11-15T21:26:13;27.75;;;17.50;;
56999;SDS011;42891;50.006;21.964;2022-11-15T21:30:13;30.67;;;17.23;;
56999;SDS011;42891;50.006;21.964;2022-11-15T21:34:14;27.27;;;16.55;;
56999;SDS011;42891;50.006;21.964;2022-11-15T21:38:14;30.55;;;16.52;;
56999;SDS011;42891;50.006;21.964;2022-11-15T21:42:15;28.63;;;16.10;;
56999;SDS011;42891;50.006;21.964;2022-11-15T21:46:15;26.73;;;15.60;;
56999;SDS011;42891;50.006;21.964;2022-11-15T21:50:15;25.48;;;14.95;;
56999;SDS011;42891;50.006;21.964;2022-11-15T21:54:16;20.30;;;12.93;;
56999;SDS011;42891;50.006;21.964;2022-11-15T21:58:19;22.67;;;12.85;;
56999;SDS011;42891;50.006;21.964;2022-11-15T22:02:20;18.95;;;12.20;;
56999;SDS011;42891;50.006;21.964;2022-11-15T22:06:21;19.17;;;12.27;;
56999;SDS011;42891;50.006;21.964;2022-11-15T22:10:21;24.52;;;13.82;;
56999;SDS011;42891;50.006;21.964;2022-11-15T22:14:21;21.45;;;13.05;;
56999;SDS011;42891;50.006;21.964;2022-11-15T22:18:22;37.25;;;23.00;;
56999;SDS011;42891;50.006;21.964;2022-11-15T22:22:26;30.40;;;16.38;;
56999;SDS011;42891;50.006;21.964;2022-11-15T22:26:26;21.90;;;13.80;;
56999;SDS011;42891;50.006;21.964;2022-11-15T22:30:26;22.67;;;14.00;;
56999;SDS011;42891;50.006;21.964;2022-11-15T22:34:27;20.70;;;13.35;;
56999;SDS011;42891;50.006;21.964;2022-11-15T22:38:27;19.77;;;12.70;;
56999;SDS011;42891;50.006;21.964;2022-11-15T22:42:28;19.85;;;12.50;;
56999;SDS011;42891;50.006;21.964;2022-11-15T22:46:29;19.85;;;13.20;;
56999;SDS011;42891;50.006;21.964;2022-11-15T22:50:29;21.48;;;14.25;;
56999;SDS011;42891;50.006;21.964;2022-11-15T22:54:29;26.38;;;14.93;;
56999;SDS011;42891;50.006;21.964;2022-11-15T22:58:31;26.63;;;16.23;;
56999;SDS011;42891;50.006;21.964;2022-11-15T23:02:32;21.42;;;13.68;;
56999;SDS011;42891;50.006;21.964;2022-11-15T23:06:32;22.35;;;12.90;;
56999;SDS011;42891;50.006;21.964;2022-11-15T23:10:32;23.65;;;14.38;;
56999;SDS011;42891;50.006;21.964;2022-11-15T23:14:51;20.85;;;13.55;;
56999;SDS011;42891;50.006;21.964;2022-11-15T23:18:52;21.95;;;14.05;;
56999;SDS011;42891;50.006;21.964;2022-11-15T23:22:55;21.42;;;12.85;;
56999;SDS011;42891;50.006;21.964;2022-11-15T23:26:56;20.55;;;11.95;;
56999;SDS011;42891;50.006;21.964;2022-11-15T23:31:05;20.75;;;12.68;;
56999;SDS011;42891;50.006;21.964;2022-11-15T23:35:25;19.58;;;12.27;;
56999;SDS011;42891;50.006;21.964;2022-11-15T23:39:26;19.65;;;12.50;;
56999;SDS011;42891;50.006;21.964;2022-11-15T23:43:27;19.98;;;13.27;;
56999;SDS011;42891;50.006;21.964;2022-11-15T23:47:27;17.55;;;11.88;;
56999;SDS011;42891;50.006;21.964;2022-11-15T23:51:27;24.25;;;14.02;;
56999;SDS011;42891;50.006;21.964;2022-11-15T23:55:28;22.13;;;14.48;;
56999;SDS011;42891;50.006;21.964;2022-11-15T23:59:29;20.85;;;13.25;;
